sensor_id;sensor_type;location;lat;lon;timestamp;P1;durP1;ratioP1;P2;durP2;ratioP2
20320;SDS011;10318;47.674;9.052;2022-10-10T00:02:11;7.57;;;5.10;;
20320;SDS011;10318;47.674;9.052;2022-10-10T00:04:38;9.45;;;6.10;;
20320;SDS011;10318;47.674;9.052;2022-10-10T00:07:05;11.27;;;6.00;;
20320;SDS011;10318;47.674;9.052;2022-10-10T00:09:32;9.05;;;5.57;;
20320;SDS011;10318;47.674;9.052;2022-10-10T00:11:58;13.90;;;5.50;;
20320;SDS011;10318;47.674;9.052;2022-10-10T00:14:25;8.02;;;5.43;;
20320;SDS011;10318;47.674;9.052;2022-10-10T00:16:56;10.52;;;6.35;;
20320;SDS011;10318;47.674;9.052;2022-10-10T00:19:23;8.77;;;6.10;;
20320;SDS011;10318;47.674;9.052;2022-10-10T00:21:50;8.95;;;6.70;;
20320;SDS011;10318;47.674;9.052;2022-10-10T00:24:16;9.40;;;6.82;;
20320;SDS011;10318;47.674;9.052;2022-10-10T00:26:45;9.98;;;6.18;;
20320;SDS011;10318;47.674;9.052;2022-10-10T00:29:12;10.82;;;6.18;;
20320;SDS011;10318;47.674;9.052;2022-10-10T00:31:38;13.05;;;6.95;;
20320;SDS011;10318;47.674;9.052;2022-10-10T00:34:05;11.88;;;6.60;;
20320;SDS011;10318;47.674;9.052;2022-10-10T00:36:32;11.15;;;6.97;;
20320;SDS011;10318;47.674;9.052;2022-10-10T00:38:58;12.32;;;6.97;;
20320;SDS011;10318;47.674;9.052;2022-10-10T00:41:25;11.15;;;7.13;;
20320;SDS011;10318;47.674;9.052;2022-10-10T00:44:05;9.20;;;6.57;;
20320;SDS011;10318;47.674;9.052;2022-10-10T00:46:33;10.25;;;6.63;;
20320;SDS011;10318;47.674;9.052;2022-10-10T00:48:59;8.30;;;6.10;;
20320;SDS011;10318;47.674;9.052;2022-10-10T00:51:26;10.93;;;6.35;;
20320;SDS011;10318;47.674;9.052;2022-10-10T00:53:57;10.98;;;6.68;;
20320;SDS011;10318;47.674;9.052;2022-10-10T00:56:28;11.77;;;6.82;;
20320;SDS011;10318;47.674;9.052;2022-10-10T00:58:57;12.27;;;7.55;;
20320;SDS011;10318;47.674;9.052;2022-10-10T01:01:25;15.35;;;6.88;;
20320;SDS011;10318;47.674;9.052;2022-10-10T01:03:55;10.93;;;6.93;;
20320;SDS011;10318;47.674;9.052;2022-10-10T01:06:22;9.77;;;7.15;;
20320;SDS011;10318;47.674;9.052;2022-10-10T01:08:48;11.73;;;8.02;;
20320;SDS011;10318;47.674;9.052;2022-10-10T01:13:49;11.70;;;7.60;;
20320;SDS011;10318;47.674;9.052;2022-10-10T01:16:20;13.20;;;8.15;;
20320;SDS011;10318;47.674;9.052;2022-10-10T01:18:59;12.40;;;6.85;;
20320;SDS011;10318;47.674;9.052;2022-10-10T01:21:36;10.63;;;7.10;;
20320;SDS011;10318;47.674;9.052;2022-10-10T01:29:11;14.38;;;8.07;;
20320;SDS011;10318;47.674;9.052;2022-10-10T01:31:41;9.75;;;7.65;;
20320;SDS011;10318;47.674;9.052;2022-10-10T01:34:16;9.32;;;7.07;;
20320;SDS011;10318;47.674;9.052;2022-10-10T01:36:52;10.75;;;7.47;;
20320;SDS011;10318;47.674;9.052;2022-10-10T01:39:24;9.70;;;7.32;;
20320;SDS011;10318;47.674;9.052;2022-10-10T01:42:02;15.85;;;7.85;;
20320;SDS011;10318;47.674;9.052;2022-10-10T01:44:30;11.73;;;7.38;;
20320;SDS011;10318;47.674;9.052;2022-10-10T01:46:57;12.85;;;7.53;;
20320;SDS011;10318;47.674;9.052;2022-10-10T01:49:27;10.18;;;7.57;;
20320;SDS011;10318;47.674;9.052;2022-10-10T01:54:47;10.93;;;7.90;;
20320;SDS011;10318;47.674;9.052;2022-10-10T02:02:15;13.57;;;7.75;;
20320;SDS011;10318;47.674;9.052;2022-10-10T02:05:00;9.35;;;8.25;;
20320;SDS011;10318;47.674;9.052;2022-10-10T02:07:40;9.73;;;7.60;;
20320;SDS011;10318;47.674;9.052;2022-10-10T02:10:09;11.98;;;8.48;;
20320;SDS011;10318;47.674;9.052;2022-10-10T02:12:36;11.30;;;7.68;;
20320;SDS011;10318;47.674;9.052;2022-10-10T02:15:06;13.50;;;8.30;;
20320;SDS011;10318;47.674;9.052;2022-10-10T02:17:36;13.73;;;8.13;;
20320;SDS011;10318;47.674;9.052;2022-10-10T02:20:03;15.32;;;7.88;;
20320;SDS011;10318;47.674;9.052;2022-10-10T02:22:31;9.30;;;7.53;;
20320;SDS011;10318;47.674;9.052;2022-10-10T02:24:58;18.58;;;8.98;;
20320;SDS011;10318;47.674;9.052;2022-10-10T02:27:47;18.10;;;8.52;;
20320;SDS011;10318;47.674;9.052;2022-10-10T02:30:11;11.98;;;8.02;;
20320;SDS011;10318;47.674;9.052;2022-10-10T02:32:48;8.98;;;7.57;;
20320;SDS011;10318;47.674;9.052;2022-10-10T02:35:18;11.57;;;7.93;;
20320;SDS011;10318;47.674;9.052;2022-10-10T02:37:45;12.38;;;8.60;;
20320;SDS011;10318;47.674;9.052;2022-10-10T02:40:13;11.02;;;7.50;;
20320;SDS011;10318;47.674;9.052;2022-10-10T02:42:42;11.73;;;8.15;;
20320;SDS011;10318;47.674;9.052;2022-10-10T02:45:10;12.82;;;7.88;;
20320;SDS011;10318;47.674;9.052;2022-10-10T02:47:37;10.55;;;8.07;;
20320;SDS011;10318;47.674;9.052;2022-10-10T02:50:03;12.15;;;8.73;;
20320;SDS011;10318;47.674;9.052;2022-10-10T02:52:30;10.93;;;7.05;;
20320;SDS011;10318;47.674;9.052;2022-10-10T02:54:57;10.18;;;7.57;;
20320;SDS011;10318;47.674;9.052;2022-10-10T02:57:24;10.82;;;7.22;;
20320;SDS011;10318;47.674;9.052;2022-10-10T02:59:50;12.32;;;7.20;;
20320;SDS011;10318;47.674;9.052;2022-10-10T03:02:17;9.88;;;7.47;;
20320;SDS011;10318;47.674;9.052;2022-10-10T03:04:44;10.75;;;8.20;;
20320;SDS011;10318;47.674;9.052;2022-10-10T03:07:10;10.45;;;7.55;;
20320;SDS011;10318;47.674;9.052;2022-10-10T03:09:37;13.48;;;7.55;;
20320;SDS011;10318;47.674;9.052;2022-10-10T03:12:04;14.52;;;7.88;;
20320;SDS011;10318;47.674;9.052;2022-10-10T03:14:31;11.13;;;7.85;;
20320;SDS011;10318;47.674;9.052;2022-10-10T03:16:57;13.73;;;8.20;;
20320;SDS011;10318;47.674;9.052;2022-10-10T03:19:24;9.07;;;7.65;;
20320;SDS011;10318;47.674;9.052;2022-10-10T03:21:51;9.15;;;7.45;;
20320;SDS011;10318;47.674;9.052;2022-10-10T03:24:18;13.10;;;7.75;;
20320;SDS011;10318;47.674;9.052;2022-10-10T03:26:44;11.52;;;7.93;;
20320;SDS011;10318;47.674;9.052;2022-10-10T03:29:11;10.90;;;8.30;;
20320;SDS011;10318;47.674;9.052;2022-10-10T03:31:38;12.27;;;8.30;;
20320;SDS011;10318;47.674;9.052;2022-10-10T03:34:04;11.07;;;8.05;;
20320;SDS011;10318;47.674;9.052;2022-10-10T03:36:31;12.27;;;8.18;;
20320;SDS011;10318;47.674;9.052;2022-10-10T03:38:57;10.48;;;8.02;;
20320;SDS011;10318;47.674;9.052;2022-10-10T03:41:24;11.18;;;8.43;;
20320;SDS011;10318;47.674;9.052;2022-10-10T03:43:51;13.40;;;9.25;;
20320;SDS011;10318;47.674;9.052;2022-10-10T03:46:17;12.07;;;7.80;;
20320;SDS011;10318;47.674;9.052;2022-10-10T03:48:44;13.25;;;8.48;;
20320;SDS011;10318;47.674;9.052;2022-10-10T03:51:11;12.48;;;8.65;;
20320;SDS011;10318;47.674;9.052;2022-10-10T03:53:37;16.05;;;9.25;;
20320;SDS011;10318;47.674;9.052;2022-10-10T03:56:04;15.82;;;9.05;;
20320;SDS011;10318;47.674;9.052;2022-10-10T03:58:31;15.13;;;8.80;;
20320;SDS011;10318;47.674;9.052;2022-10-10T04:00:59;14.50;;;9.18;;
20320;SDS011;10318;47.674;9.052;2022-10-10T04:03:26;13.45;;;9.05;;
20320;SDS011;10318;47.674;9.052;2022-10-10T04:05:53;12.50;;;8.30;;
20320;SDS011;10318;47.674;9.052;2022-10-10T04:08:20;14.55;;;8.93;;
20320;SDS011;10318;47.674;9.052;2022-10-10T04:10:47;12.38;;;9.10;;
20320;SDS011;10318;47.674;9.052;2022-10-10T04:13:14;14.40;;;9.23;;
20320;SDS011;10318;47.674;9.052;2022-10-10T04:15:41;13.48;;;8.20;;
20320;SDS011;10318;47.674;9.052;2022-10-10T04:18:08;10.43;;;8.70;;
20320;SDS011;10318;47.674;9.052;2022-10-10T04:20:35;17.58;;;10.60;;
20320;SDS011;10318;47.674;9.052;2022-10-10T04:23:02;12.52;;;10.00;;
20320;SDS011;10318;47.674;9.052;2022-10-10T04:25:29;17.15;;;10.48;;
20320;SDS011;10318;47.674;9.052;2022-10-10T04:27:55;14.07;;;9.95;;
20320;SDS011;10318;47.674;9.052;2022-10-10T04:30:28;13.05;;;9.40;;
20320;SDS011;10318;47.674;9.052;2022-10-10T04:32:57;16.80;;;10.63;;
20320;SDS011;10318;47.674;9.052;2022-10-10T04:35:23;10.93;;;9.32;;
20320;SDS011;10318;47.674;9.052;2022-10-10T04:37:50;13.70;;;9.48;;
20320;SDS011;10318;47.674;9.052;2022-10-10T04:40:18;13.52;;;9.32;;
20320;SDS011;10318;47.674;9.052;2022-10-10T04:42:51;17.45;;;9.75;;
20320;SDS011;10318;47.674;9.052;2022-10-10T04:45:18;10.77;;;9.40;;
20320;SDS011;10318;47.674;9.052;2022-10-10T04:47:45;11.75;;;10.20;;
20320;SDS011;10318;47.674;9.052;2022-10-10T04:50:12;14.57;;;10.35;;
20320;SDS011;10318;47.674;9.052;2022-10-10T04:52:38;13.52;;;10.05;;
20320;SDS011;10318;47.674;9.052;2022-10-10T04:55:05;12.05;;;9.85;;
20320;SDS011;10318;47.674;9.052;2022-10-10T04:57:32;12.00;;;9.43;;
20320;SDS011;10318;47.674;9.052;2022-10-10T04:59:58;13.13;;;9.85;;
20320;SDS011;10318;47.674;9.052;2022-10-10T05:02:25;16.17;;;10.50;;
20320;SDS011;10318;47.674;9.052;2022-10-10T05:04:51;12.15;;;9.95;;
20320;SDS011;10318;47.674;9.052;2022-10-10T05:07:18;12.30;;;9.77;;
20320;SDS011;10318;47.674;9.052;2022-10-10T05:09:45;13.73;;;10.00;;
20320;SDS011;10318;47.674;9.052;2022-10-10T05:12:11;11.60;;;9.80;;
20320;SDS011;10318;47.674;9.052;2022-10-10T05:14:38;15.43;;;10.00;;
20320;SDS011;10318;47.674;9.052;2022-10-10T05:17:10;11.88;;;9.32;;
20320;SDS011;10318;47.674;9.052;2022-10-10T05:19:36;14.18;;;9.18;;
20320;SDS011;10318;47.674;9.052;2022-10-10T05:22:03;14.07;;;10.52;;
20320;SDS011;10318;47.674;9.052;2022-10-10T05:24:29;11.63;;;9.85;;
20320;SDS011;10318;47.674;9.052;2022-10-10T05:26:56;15.45;;;10.13;;
20320;SDS011;10318;47.674;9.052;2022-10-10T05:29:23;13.57;;;9.90;;
20320;SDS011;10318;47.674;9.052;2022-10-10T05:31:49;15.10;;;9.27;;
20320;SDS011;10318;47.674;9.052;2022-10-10T05:34:16;14.45;;;10.00;;
20320;SDS011;10318;47.674;9.052;2022-10-10T05:36:42;16.35;;;9.13;;
20320;SDS011;10318;47.674;9.052;2022-10-10T05:39:09;12.13;;;9.88;;
20320;SDS011;10318;47.674;9.052;2022-10-10T05:41:36;16.38;;;9.75;;
20320;SDS011;10318;47.674;9.052;2022-10-10T05:44:02;13.68;;;10.13;;
20320;SDS011;10318;47.674;9.052;2022-10-10T05:46:29;14.88;;;11.07;;
20320;SDS011;10318;47.674;9.052;2022-10-10T05:48:56;12.77;;;9.85;;
20320;SDS011;10318;47.674;9.052;2022-10-10T05:51:25;15.50;;;10.45;;
20320;SDS011;10318;47.674;9.052;2022-10-10T05:53:54;14.13;;;11.02;;
20320;SDS011;10318;47.674;9.052;2022-10-10T05:56:22;14.23;;;10.07;;
20320;SDS011;10318;47.674;9.052;2022-10-10T05:58:49;13.93;;;10.23;;
20320;SDS011;10318;47.674;9.052;2022-10-10T06:01:16;11.98;;;9.63;;
20320;SDS011;10318;47.674;9.052;2022-10-10T06:03:43;15.77;;;9.70;;
20320;SDS011;10318;47.674;9.052;2022-10-10T06:06:10;14.18;;;10.82;;
20320;SDS011;10318;47.674;9.052;2022-10-10T06:08:36;14.73;;;10.57;;
20320;SDS011;10318;47.674;9.052;2022-10-10T06:11:04;21.38;;;11.30;;
20320;SDS011;10318;47.674;9.052;2022-10-10T06:13:31;16.70;;;10.98;;
20320;SDS011;10318;47.674;9.052;2022-10-10T06:15:58;15.60;;;10.60;;
20320;SDS011;10318;47.674;9.052;2022-10-10T06:18:24;14.55;;;11.70;;
20320;SDS011;10318;47.674;9.052;2022-10-10T06:20:51;13.90;;;11.52;;
20320;SDS011;10318;47.674;9.052;2022-10-10T06:23:20;12.30;;;10.75;;
20320;SDS011;10318;47.674;9.052;2022-10-10T06:25:47;18.02;;;11.25;;
20320;SDS011;10318;47.674;9.052;2022-10-10T06:28:16;16.13;;;11.25;;
20320;SDS011;10318;47.674;9.052;2022-10-10T06:30:43;12.80;;;11.07;;
20320;SDS011;10318;47.674;9.052;2022-10-10T06:33:10;11.30;;;10.00;;
20320;SDS011;10318;47.674;9.052;2022-10-10T06:35:40;11.05;;;9.30;;
20320;SDS011;10318;47.674;9.052;2022-10-10T06:38:07;11.70;;;9.80;;
20320;SDS011;10318;47.674;9.052;2022-10-10T06:40:33;20.20;;;11.07;;
20320;SDS011;10318;47.674;9.052;2022-10-10T06:43:00;13.10;;;10.07;;
20320;SDS011;10318;47.674;9.052;2022-10-10T06:45:27;17.15;;;10.30;;
20320;SDS011;10318;47.674;9.052;2022-10-10T06:47:53;14.02;;;10.73;;
20320;SDS011;10318;47.674;9.052;2022-10-10T06:50:20;12.00;;;9.73;;
20320;SDS011;10318;47.674;9.052;2022-10-10T06:52:47;17.02;;;10.50;;
20320;SDS011;10318;47.674;9.052;2022-10-10T06:55:14;12.70;;;9.82;;
20320;SDS011;10318;47.674;9.052;2022-10-10T06:57:41;15.52;;;9.93;;
20320;SDS011;10318;47.674;9.052;2022-10-10T07:00:08;12.82;;;9.95;;
20320;SDS011;10318;47.674;9.052;2022-10-10T07:02:35;11.98;;;9.95;;
20320;SDS011;10318;47.674;9.052;2022-10-10T07:05:11;12.23;;;10.88;;
20320;SDS011;10318;47.674;9.052;2022-10-10T07:07:38;12.55;;;9.73;;
20320;SDS011;10318;47.674;9.052;2022-10-10T07:10:06;15.07;;;10.88;;
20320;SDS011;10318;47.674;9.052;2022-10-10T07:12:32;16.13;;;11.30;;
20320;SDS011;10318;47.674;9.052;2022-10-10T07:15:09;14.90;;;11.95;;
20320;SDS011;10318;47.674;9.052;2022-10-10T07:17:35;15.18;;;11.80;;
20320;SDS011;10318;47.674;9.052;2022-10-10T07:20:02;19.25;;;13.48;;
20320;SDS011;10318;47.674;9.052;2022-10-10T07:22:29;17.33;;;13.98;;
20320;SDS011;10318;47.674;9.052;2022-10-10T07:24:55;19.75;;;13.50;;
20320;SDS011;10318;47.674;9.052;2022-10-10T07:27:22;18.35;;;13.55;;
20320;SDS011;10318;47.674;9.052;2022-10-10T07:29:49;22.77;;;12.48;;
20320;SDS011;10318;47.674;9.052;2022-10-10T07:32:15;17.48;;;12.68;;
20320;SDS011;10318;47.674;9.052;2022-10-10T07:34:42;16.02;;;12.30;;
20320;SDS011;10318;47.674;9.052;2022-10-10T07:37:08;16.75;;;12.50;;
20320;SDS011;10318;47.674;9.052;2022-10-10T07:39:35;18.75;;;11.98;;
20320;SDS011;10318;47.674;9.052;2022-10-10T07:42:04;17.10;;;11.77;;
20320;SDS011;10318;47.674;9.052;2022-10-10T07:44:31;18.92;;;12.90;;
20320;SDS011;10318;47.674;9.052;2022-10-10T07:47:00;16.10;;;12.35;;
20320;SDS011;10318;47.674;9.052;2022-10-10T07:49:26;17.17;;;12.55;;
20320;SDS011;10318;47.674;9.052;2022-10-10T07:51:54;20.40;;;11.85;;
20320;SDS011;10318;47.674;9.052;2022-10-10T07:54:27;14.35;;;11.07;;
20320;SDS011;10318;47.674;9.052;2022-10-10T07:56:53;16.83;;;11.48;;
20320;SDS011;10318;47.674;9.052;2022-10-10T07:59:20;18.77;;;12.05;;
20320;SDS011;10318;47.674;9.052;2022-10-10T08:01:47;16.88;;;11.48;;
20320;SDS011;10318;47.674;9.052;2022-10-10T08:04:14;14.65;;;11.23;;
20320;SDS011;10318;47.674;9.052;2022-10-10T08:06:40;17.98;;;12.48;;
20320;SDS011;10318;47.674;9.052;2022-10-10T08:09:07;18.85;;;12.07;;
20320;SDS011;10318;47.674;9.052;2022-10-10T08:11:34;15.35;;;10.85;;
20320;SDS011;10318;47.674;9.052;2022-10-10T08:14:01;12.32;;;10.93;;
20320;SDS011;10318;47.674;9.052;2022-10-10T08:16:27;20.23;;;11.75;;
20320;SDS011;10318;47.674;9.052;2022-10-10T08:18:54;16.02;;;10.95;;
20320;SDS011;10318;47.674;9.052;2022-10-10T08:21:21;17.35;;;12.30;;
20320;SDS011;10318;47.674;9.052;2022-10-10T08:23:47;13.27;;;10.90;;
20320;SDS011;10318;47.674;9.052;2022-10-10T08:26:15;26.92;;;11.00;;
20320;SDS011;10318;47.674;9.052;2022-10-10T08:28:42;13.05;;;10.00;;
20320;SDS011;10318;47.674;9.052;2022-10-10T08:31:10;23.38;;;10.98;;
20320;SDS011;10318;47.674;9.052;2022-10-10T08:33:37;15.13;;;11.68;;
20320;SDS011;10318;47.674;9.052;2022-10-10T08:36:05;24.58;;;11.98;;
20320;SDS011;10318;47.674;9.052;2022-10-10T08:38:32;18.77;;;12.02;;
20320;SDS011;10318;47.674;9.052;2022-10-10T08:40:59;12.63;;;10.40;;
20320;SDS011;10318;47.674;9.052;2022-10-10T08:43:28;14.05;;;10.00;;
20320;SDS011;10318;47.674;9.052;2022-10-10T08:45:57;21.70;;;11.48;;
20320;SDS011;10318;47.674;9.052;2022-10-10T08:48:24;16.13;;;10.75;;
20320;SDS011;10318;47.674;9.052;2022-10-10T08:50:58;19.23;;;11.45;;
20320;SDS011;10318;47.674;9.052;2022-10-10T08:53:31;14.73;;;10.68;;
20320;SDS011;10318;47.674;9.052;2022-10-10T08:56:00;14.60;;;11.50;;
20320;SDS011;10318;47.674;9.052;2022-10-10T09:01:01;17.83;;;11.07;;
20320;SDS011;10318;47.674;9.052;2022-10-10T09:03:31;14.18;;;11.20;;
20320;SDS011;10318;47.674;9.052;2022-10-10T09:08:42;17.35;;;11.65;;
20320;SDS011;10318;47.674;9.052;2022-10-10T09:11:20;17.85;;;11.73;;
20320;SDS011;10318;47.674;9.052;2022-10-10T09:21:40;17.65;;;11.40;;
20320;SDS011;10318;47.674;9.052;2022-10-10T09:24:11;14.52;;;10.38;;
20320;SDS011;10318;47.674;9.052;2022-10-10T09:26:46;17.67;;;11.10;;
20320;SDS011;10318;47.674;9.052;2022-10-10T09:29:28;17.25;;;11.48;;
20320;SDS011;10318;47.674;9.052;2022-10-10T09:31:57;16.80;;;10.77;;
20320;SDS011;10318;47.674;9.052;2022-10-10T09:34:37;15.45;;;10.95;;
20320;SDS011;10318;47.674;9.052;2022-10-10T09:37:13;16.75;;;10.98;;
20320;SDS011;10318;47.674;9.052;2022-10-10T09:39:56;12.90;;;10.50;;
20320;SDS011;10318;47.674;9.052;2022-10-10T09:42:27;15.15;;;11.38;;
20320;SDS011;10318;47.674;9.052;2022-10-10T09:44:56;13.52;;;10.43;;
20320;SDS011;10318;47.674;9.052;2022-10-10T09:47:23;16.40;;;10.82;;
20320;SDS011;10318;47.674;9.052;2022-10-10T09:49:49;37.30;;;29.50;;
20320;SDS011;10318;47.674;9.052;2022-10-10T09:54:51;15.38;;;10.75;;
20320;SDS011;10318;47.674;9.052;2022-10-10T09:57:20;15.10;;;11.27;;
20320;SDS011;10318;47.674;9.052;2022-10-10T09:59:47;17.77;;;10.98;;
20320;SDS011;10318;47.674;9.052;2022-10-10T10:02:18;20.50;;;11.38;;
20320;SDS011;10318;47.674;9.052;2022-10-10T10:04:45;18.90;;;10.90;;
20320;SDS011;10318;47.674;9.052;2022-10-10T10:07:20;13.95;;;10.35;;
20320;SDS011;10318;47.674;9.052;2022-10-10T10:10:10;17.73;;;11.50;;
20320;SDS011;10318;47.674;9.052;2022-10-10T10:12:40;18.92;;;12.13;;
20320;SDS011;10318;47.674;9.052;2022-10-10T10:15:16;18.50;;;12.63;;
20320;SDS011;10318;47.674;9.052;2022-10-10T10:17:43;14.75;;;11.45;;
20320;SDS011;10318;47.674;9.052;2022-10-10T10:20:53;15.63;;;11.63;;
20320;SDS011;10318;47.674;9.052;2022-10-10T10:22:59;16.27;;;11.45;;
20320;SDS011;10318;47.674;9.052;2022-10-10T10:30:36;13.88;;;11.05;;
20320;SDS011;10318;47.674;9.052;2022-10-10T10:35:39;15.60;;;12.13;;
20320;SDS011;10318;47.674;9.052;2022-10-10T10:41:28;16.25;;;11.15;;
20320;SDS011;10318;47.674;9.052;2022-10-10T10:48:46;16.00;;;11.52;;
20320;SDS011;10318;47.674;9.052;2022-10-10T11:10:16;13.90;;;11.00;;
20320;SDS011;10318;47.674;9.052;2022-10-10T11:15:24;10.90;;;9.38;;
20320;SDS011;10318;47.674;9.052;2022-10-10T11:23:09;14.93;;;9.75;;
20320;SDS011;10318;47.674;9.052;2022-10-10T11:25:42;14.70;;;9.18;;
20320;SDS011;10318;47.674;9.052;2022-10-10T11:28:11;10.98;;;9.50;;
20320;SDS011;10318;47.674;9.052;2022-10-10T11:30:39;12.95;;;9.95;;
20320;SDS011;10318;47.674;9.052;2022-10-10T11:33:13;15.48;;;10.30;;
20320;SDS011;10318;47.674;9.052;2022-10-10T11:35:43;10.10;;;8.57;;
20320;SDS011;10318;47.674;9.052;2022-10-10T11:40:43;10.00;;;8.05;;
20320;SDS011;10318;47.674;9.052;2022-10-10T11:43:56;11.90;;;8.25;;
20320;SDS011;10318;47.674;9.052;2022-10-10T11:46:04;9.25;;;7.43;;
20320;SDS011;10318;47.674;9.052;2022-10-10T11:48:55;11.48;;;9.20;;
20320;SDS011;10318;47.674;9.052;2022-10-10T11:51:26;10.75;;;9.20;;
20320;SDS011;10318;47.674;9.052;2022-10-10T11:53:58;11.48;;;9.25;;
20320;SDS011;10318;47.674;9.052;2022-10-10T11:56:31;14.30;;;10.00;;
20320;SDS011;10318;47.674;9.052;2022-10-10T12:01:45;12.48;;;9.93;;
20320;SDS011;10318;47.674;9.052;2022-10-10T12:04:13;15.25;;;11.32;;
20320;SDS011;10318;47.674;9.052;2022-10-10T12:06:41;11.10;;;9.70;;
20320;SDS011;10318;47.674;9.052;2022-10-10T12:11:57;11.05;;;9.18;;
20320;SDS011;10318;47.674;9.052;2022-10-10T12:14:25;15.95;;;9.85;;
20320;SDS011;10318;47.674;9.052;2022-10-10T12:16:53;10.95;;;8.30;;
20320;SDS011;10318;47.674;9.052;2022-10-10T12:19:21;10.02;;;8.52;;
20320;SDS011;10318;47.674;9.052;2022-10-10T12:24:25;11.55;;;8.75;;
20320;SDS011;10318;47.674;9.052;2022-10-10T12:34:55;10.57;;;9.52;;
20320;SDS011;10318;47.674;9.052;2022-10-10T12:37:23;10.60;;;8.45;;
20320;SDS011;10318;47.674;9.052;2022-10-10T12:42:58;13.68;;;9.35;;
20320;SDS011;10318;47.674;9.052;2022-10-10T12:47:57;15.32;;;8.77;;
20320;SDS011;10318;47.674;9.052;2022-10-10T12:50:41;9.25;;;8.10;;
20320;SDS011;10318;47.674;9.052;2022-10-10T12:55:42;12.10;;;8.50;;
20320;SDS011;10318;47.674;9.052;2022-10-10T12:58:29;10.52;;;7.78;;
20320;SDS011;10318;47.674;9.052;2022-10-10T13:00:58;12.95;;;8.18;;
20320;SDS011;10318;47.674;9.052;2022-10-10T13:03:35;13.20;;;7.65;;
20320;SDS011;10318;47.674;9.052;2022-10-10T13:06:50;11.68;;;7.57;;
20320;SDS011;10318;47.674;9.052;2022-10-10T13:08:53;12.63;;;7.72;;
20320;SDS011;10318;47.674;9.052;2022-10-10T13:11:20;14.15;;;8.18;;
20320;SDS011;10318;47.674;9.052;2022-10-10T13:13:54;8.05;;;7.25;;
20320;SDS011;10318;47.674;9.052;2022-10-10T13:16:22;10.27;;;7.88;;
20320;SDS011;10318;47.674;9.052;2022-10-10T13:18:58;16.60;;;7.10;;
20320;SDS011;10318;47.674;9.052;2022-10-10T13:21:26;13.80;;;9.05;;
20320;SDS011;10318;47.674;9.052;2022-10-10T13:23:57;11.25;;;8.38;;
20320;SDS011;10318;47.674;9.052;2022-10-10T13:26:33;14.07;;;8.50;;
20320;SDS011;10318;47.674;9.052;2022-10-10T13:29:04;15.52;;;9.23;;
20320;SDS011;10318;47.674;9.052;2022-10-10T13:31:32;12.05;;;8.43;;
20320;SDS011;10318;47.674;9.052;2022-10-10T13:34:01;13.35;;;8.73;;
20320;SDS011;10318;47.674;9.052;2022-10-10T13:36:28;11.45;;;9.02;;
20320;SDS011;10318;47.674;9.052;2022-10-10T13:38:55;12.50;;;8.93;;
20320;SDS011;10318;47.674;9.052;2022-10-10T13:41:22;15.63;;;9.65;;
20320;SDS011;10318;47.674;9.052;2022-10-10T13:43:50;11.88;;;8.55;;
20320;SDS011;10318;47.674;9.052;2022-10-10T13:46:20;14.10;;;9.23;;
20320;SDS011;10318;47.674;9.052;2022-10-10T13:48:48;12.88;;;8.82;;
20320;SDS011;10318;47.674;9.052;2022-10-10T13:51:16;16.42;;;8.48;;
20320;SDS011;10318;47.674;9.052;2022-10-10T13:56:28;12.27;;;8.95;;
20320;SDS011;10318;47.674;9.052;2022-10-10T14:06:55;10.38;;;8.35;;
20320;SDS011;10318;47.674;9.052;2022-10-10T14:09:31;9.35;;;8.27;;
20320;SDS011;10318;47.674;9.052;2022-10-10T14:12:01;10.82;;;8.45;;
20320;SDS011;10318;47.674;9.052;2022-10-10T14:14:33;13.25;;;8.65;;
20320;SDS011;10318;47.674;9.052;2022-10-10T14:17:13;14.40;;;9.63;;
20320;SDS011;10318;47.674;9.052;2022-10-10T14:19:50;14.05;;;9.18;;
20320;SDS011;10318;47.674;9.052;2022-10-10T14:22:17;15.18;;;8.93;;
20320;SDS011;10318;47.674;9.052;2022-10-10T14:24:44;10.98;;;8.40;;
20320;SDS011;10318;47.674;9.052;2022-10-10T14:27:13;12.18;;;9.68;;
20320;SDS011;10318;47.674;9.052;2022-10-10T14:29:41;17.50;;;10.63;;
20320;SDS011;10318;47.674;9.052;2022-10-10T14:32:08;12.82;;;9.85;;
20320;SDS011;10318;47.674;9.052;2022-10-10T14:38:40;11.77;;;9.32;;
20320;SDS011;10318;47.674;9.052;2022-10-10T14:41:43;11.85;;;9.32;;
20320;SDS011;10318;47.674;9.052;2022-10-10T14:44:26;11.65;;;9.38;;
20320;SDS011;10318;47.674;9.052;2022-10-10T14:47:14;13.50;;;9.07;;
20320;SDS011;10318;47.674;9.052;2022-10-10T14:49:41;14.60;;;8.90;;
20320;SDS011;10318;47.674;9.052;2022-10-10T14:52:13;11.73;;;9.00;;
20320;SDS011;10318;47.674;9.052;2022-10-10T14:54:42;12.30;;;8.10;;
20320;SDS011;10318;47.674;9.052;2022-10-10T14:57:11;10.82;;;8.48;;
20320;SDS011;10318;47.674;9.052;2022-10-10T14:59:40;13.93;;;8.60;;
20320;SDS011;10318;47.674;9.052;2022-10-10T15:02:18;12.43;;;9.18;;
20320;SDS011;10318;47.674;9.052;2022-10-10T15:04:45;12.23;;;9.77;;
20320;SDS011;10318;47.674;9.052;2022-10-10T15:07:12;10.77;;;9.13;;
20320;SDS011;10318;47.674;9.052;2022-10-10T15:09:41;11.55;;;9.25;;
20320;SDS011;10318;47.674;9.052;2022-10-10T15:12:28;12.65;;;8.65;;
20320;SDS011;10318;47.674;9.052;2022-10-10T15:14:55;10.05;;;8.15;;
20320;SDS011;10318;47.674;9.052;2022-10-10T15:17:21;15.52;;;8.27;;
20320;SDS011;10318;47.674;9.052;2022-10-10T15:19:49;17.48;;;9.60;;
20320;SDS011;10318;47.674;9.052;2022-10-10T15:22:17;12.20;;;8.52;;
20320;SDS011;10318;47.674;9.052;2022-10-10T15:24:44;13.30;;;9.02;;
20320;SDS011;10318;47.674;9.052;2022-10-10T15:27:10;15.80;;;9.32;;
20320;SDS011;10318;47.674;9.052;2022-10-10T15:29:37;11.35;;;8.52;;
20320;SDS011;10318;47.674;9.052;2022-10-10T15:32:04;10.75;;;8.25;;
20320;SDS011;10318;47.674;9.052;2022-10-10T15:34:34;9.73;;;8.38;;
20320;SDS011;10318;47.674;9.052;2022-10-10T15:37:01;12.20;;;8.48;;
20320;SDS011;10318;47.674;9.052;2022-10-10T15:39:28;11.48;;;8.45;;
20320;SDS011;10318;47.674;9.052;2022-10-10T15:41:56;20.00;;;8.27;;
20320;SDS011;10318;47.674;9.052;2022-10-10T15:44:23;11.75;;;8.20;;
20320;SDS011;10318;47.674;9.052;2022-10-10T15:46:49;10.95;;;8.73;;
20320;SDS011;10318;47.674;9.052;2022-10-10T15:49:16;10.40;;;8.35;;
20320;SDS011;10318;47.674;9.052;2022-10-10T15:51:43;12.48;;;9.13;;
20320;SDS011;10318;47.674;9.052;2022-10-10T15:54:10;9.45;;;7.93;;
20320;SDS011;10318;47.674;9.052;2022-10-10T15:56:37;12.95;;;9.95;;
20320;SDS011;10318;47.674;9.052;2022-10-10T15:59:04;13.35;;;9.88;;
20320;SDS011;10318;47.674;9.052;2022-10-10T16:01:31;19.70;;;9.55;;
20320;SDS011;10318;47.674;9.052;2022-10-10T16:04:00;14.23;;;9.30;;
20320;SDS011;10318;47.674;9.052;2022-10-10T16:06:27;12.38;;;9.10;;
20320;SDS011;10318;47.674;9.052;2022-10-10T16:08:54;11.48;;;8.50;;
20320;SDS011;10318;47.674;9.052;2022-10-10T16:11:41;12.48;;;8.50;;
20320;SDS011;10318;47.674;9.052;2022-10-10T16:14:09;14.63;;;8.38;;
20320;SDS011;10318;47.674;9.052;2022-10-10T16:16:36;16.25;;;9.70;;
20320;SDS011;10318;47.674;9.052;2022-10-10T16:19:02;13.88;;;8.18;;
20320;SDS011;10318;47.674;9.052;2022-10-10T16:21:29;9.80;;;8.07;;
20320;SDS011;10318;47.674;9.052;2022-10-10T16:23:59;11.05;;;7.43;;
20320;SDS011;10318;47.674;9.052;2022-10-10T16:26:28;9.60;;;7.57;;
20320;SDS011;10318;47.674;9.052;2022-10-10T16:28:57;10.15;;;7.07;;
20320;SDS011;10318;47.674;9.052;2022-10-10T16:31:24;11.15;;;6.35;;
20320;SDS011;10318;47.674;9.052;2022-10-10T16:34:11;10.68;;;6.10;;
20320;SDS011;10318;47.674;9.052;2022-10-10T16:36:40;10.68;;;7.00;;
20320;SDS011;10318;47.674;9.052;2022-10-10T16:39:07;9.00;;;7.32;;